ΕΜΥ, Εθνική Μετεωρολογική Υπηρεσία - Δελτία Καιρού, Προγνώσεις

ΑΕΡΟΝΑΥΤΙΛΙΑ

GREEK AIRPORTS CODES

LGSA 300120Z 28005KT 9999 FEW020 22/19 Q1011=

EUROPEAN AIRPORTS CODES

LFPO 300130Z AUTO 23004KT CAVOK 15/12 Q1013 TEMPO 3000 SHRABKN012 SCT040CB=